sensor_id;sensor_type;location;lat;lon;timestamp;P1;durP1;ratioP1;P2;durP2;ratioP2
1404;SDS011;697;51.114;6.542;2024-03-22T00:00:39;32.33;;;18.70;;
1404;SDS011;697;51.114;6.542;2024-03-22T00:03:06;24.53;;;16.73;;
1404;SDS011;697;51.114;6.542;2024-03-22T00:05:31;23.20;;;15.60;;
1404;SDS011;697;51.114;6.542;2024-03-22T00:07:58;26.77;;;17.63;;
1404;SDS011;697;51.114;6.542;2024-03-22T00:10:24;26.70;;;17.50;;
1404;SDS011;697;51.114;6.542;2024-03-22T00:12:51;27.30;;;16.50;;
1404;SDS011;697;51.114;6.542;2024-03-22T00:15:18;30.80;;;18.20;;
1404;SDS011;697;51.114;6.542;2024-03-22T00:17:45;27.73;;;17.60;;
1404;SDS011;697;51.114;6.542;2024-03-22T00:20:11;28.23;;;16.80;;
1404;SDS011;697;51.114;6.542;2024-03-22T00:22:38;24.00;;;16.37;;
1404;SDS011;697;51.114;6.542;2024-03-22T00:25:04;22.47;;;16.17;;
1404;SDS011;697;51.114;6.542;2024-03-22T00:27:31;32.07;;;16.30;;
1404;SDS011;697;51.114;6.542;2024-03-22T00:29:57;25.37;;;17.27;;
1404;SDS011;697;51.114;6.542;2024-03-22T00:32:25;27.93;;;15.90;;
1404;SDS011;697;51.114;6.542;2024-03-22T00:34:51;24.33;;;16.23;;
1404;SDS011;697;51.114;6.542;2024-03-22T00:37:18;25.70;;;15.17;;
1404;SDS011;697;51.114;6.542;2024-03-22T00:39:44;22.50;;;15.87;;
1404;SDS011;697;51.114;6.542;2024-03-22T00:42:11;24.97;;;17.73;;
1404;SDS011;697;51.114;6.542;2024-03-22T00:44:36;24.23;;;16.40;;
1404;SDS011;697;51.114;6.542;2024-03-22T00:47:03;24.67;;;16.77;;
1404;SDS011;697;51.114;6.542;2024-03-22T00:49:32;23.70;;;17.20;;
1404;SDS011;697;51.114;6.542;2024-03-22T00:51:59;22.77;;;17.03;;
1404;SDS011;697;51.114;6.542;2024-03-22T00:54:25;25.87;;;16.37;;
1404;SDS011;697;51.114;6.542;2024-03-22T00:56:52;25.30;;;16.87;;
1404;SDS011;697;51.114;6.542;2024-03-22T00:59:18;24.00;;;15.83;;
1404;SDS011;697;51.114;6.542;2024-03-22T01:01:45;25.23;;;16.80;;
1404;SDS011;697;51.114;6.542;2024-03-22T01:04:10;23.47;;;15.03;;
1404;SDS011;697;51.114;6.542;2024-03-22T01:06:39;22.50;;;16.20;;
1404;SDS011;697;51.114;6.542;2024-03-22T01:09:05;25.67;;;15.77;;
1404;SDS011;697;51.114;6.542;2024-03-22T01:11:32;25.33;;;17.90;;
1404;SDS011;697;51.114;6.542;2024-03-22T01:13:58;25.00;;;16.47;;
1404;SDS011;697;51.114;6.542;2024-03-22T01:16:25;25.50;;;16.50;;
1404;SDS011;697;51.114;6.542;2024-03-22T01:18:51;28.00;;;15.83;;
1404;SDS011;697;51.114;6.542;2024-03-22T01:21:17;23.50;;;15.87;;
1404;SDS011;697;51.114;6.542;2024-03-22T01:23:45;24.70;;;16.80;;
1404;SDS011;697;51.114;6.542;2024-03-22T01:26:11;28.33;;;17.30;;
1404;SDS011;697;51.114;6.542;2024-03-22T01:28:37;26.23;;;16.20;;
1404;SDS011;697;51.114;6.542;2024-03-22T01:31:04;25.40;;;17.67;;
1404;SDS011;697;51.114;6.542;2024-03-22T01:33:30;26.17;;;15.40;;
1404;SDS011;697;51.114;6.542;2024-03-22T01:35:57;26.17;;;16.50;;
1404;SDS011;697;51.114;6.542;2024-03-22T01:38:23;18.80;;;13.73;;
1404;SDS011;697;51.114;6.542;2024-03-22T01:40:51;24.67;;;18.40;;
1404;SDS011;697;51.114;6.542;2024-03-22T01:43:17;23.07;;;16.37;;
1404;SDS011;697;51.114;6.542;2024-03-22T01:45:43;24.17;;;16.07;;
1404;SDS011;697;51.114;6.542;2024-03-22T01:48:10;24.57;;;16.03;;
1404;SDS011;697;51.114;6.542;2024-03-22T01:50:38;25.27;;;16.07;;
1404;SDS011;697;51.114;6.542;2024-03-22T01:53:04;23.90;;;15.87;;
1404;SDS011;697;51.114;6.542;2024-03-22T01:55:31;20.47;;;14.30;;
1404;SDS011;697;51.114;6.542;2024-03-22T01:57:59;23.43;;;14.30;;
1404;SDS011;697;51.114;6.542;2024-03-22T02:00:25;22.30;;;15.87;;
1404;SDS011;697;51.114;6.542;2024-03-22T02:02:52;26.00;;;17.23;;
1404;SDS011;697;51.114;6.542;2024-03-22T02:05:18;18.30;;;14.50;;
1404;SDS011;697;51.114;6.542;2024-03-22T02:07:46;22.80;;;15.73;;
1404;SDS011;697;51.114;6.542;2024-03-22T02:10:12;24.30;;;16.80;;
1404;SDS011;697;51.114;6.542;2024-03-22T02:12:40;22.93;;;15.17;;
1404;SDS011;697;51.114;6.542;2024-03-22T02:15:08;21.67;;;15.20;;
1404;SDS011;697;51.114;6.542;2024-03-22T02:17:35;22.20;;;16.00;;
1404;SDS011;697;51.114;6.542;2024-03-22T02:20:01;20.03;;;14.20;;
1404;SDS011;697;51.114;6.542;2024-03-22T02:22:30;19.17;;;15.10;;
1404;SDS011;697;51.114;6.542;2024-03-22T02:24:57;20.40;;;15.67;;
1404;SDS011;697;51.114;6.542;2024-03-22T02:27:24;24.17;;;14.00;;
1404;SDS011;697;51.114;6.542;2024-03-22T02:29:50;26.80;;;15.93;;
1404;SDS011;697;51.114;6.542;2024-03-22T02:32:17;22.93;;;14.30;;
1404;SDS011;697;51.114;6.542;2024-03-22T02:34:43;24.80;;;14.97;;
1404;SDS011;697;51.114;6.542;2024-03-22T02:37:10;24.50;;;16.13;;
1404;SDS011;697;51.114;6.542;2024-03-22T02:39:36;23.07;;;15.63;;
1404;SDS011;697;51.114;6.542;2024-03-22T02:42:04;21.60;;;16.33;;
1404;SDS011;697;51.114;6.542;2024-03-22T02:44:30;23.37;;;16.00;;
1404;SDS011;697;51.114;6.542;2024-03-22T02:46:57;22.40;;;14.97;;
1404;SDS011;697;51.114;6.542;2024-03-22T02:49:23;19.60;;;14.63;;
1404;SDS011;697;51.114;6.542;2024-03-22T02:51:51;23.50;;;15.80;;
1404;SDS011;697;51.114;6.542;2024-03-22T02:54:17;25.67;;;16.50;;
1404;SDS011;697;51.114;6.542;2024-03-22T02:56:43;29.60;;;16.93;;
1404;SDS011;697;51.114;6.542;2024-03-22T02:59:11;28.17;;;17.13;;
1404;SDS011;697;51.114;6.542;2024-03-22T03:01:37;26.40;;;16.40;;
1404;SDS011;697;51.114;6.542;2024-03-22T03:04:03;24.97;;;16.40;;
1404;SDS011;697;51.114;6.542;2024-03-22T03:06:30;26.13;;;19.03;;
1404;SDS011;697;51.114;6.542;2024-03-22T03:08:56;23.40;;;16.57;;
1404;SDS011;697;51.114;6.542;2024-03-22T03:11:23;26.50;;;18.17;;
1404;SDS011;697;51.114;6.542;2024-03-22T03:13:48;23.90;;;16.60;;
1404;SDS011;697;51.114;6.542;2024-03-22T03:16:17;22.40;;;17.50;;
1404;SDS011;697;51.114;6.542;2024-03-22T03:18:42;21.23;;;16.13;;
1404;SDS011;697;51.114;6.542;2024-03-22T03:21:09;24.03;;;16.67;;
1404;SDS011;697;51.114;6.542;2024-03-22T03:23:35;26.73;;;17.30;;
1404;SDS011;697;51.114;6.542;2024-03-22T03:26:02;22.17;;;15.47;;
1404;SDS011;697;51.114;6.542;2024-03-22T03:28:28;26.93;;;17.67;;
1404;SDS011;697;51.114;6.542;2024-03-22T03:30:55;21.63;;;16.83;;
1404;SDS011;697;51.114;6.542;2024-03-22T03:33:22;29.03;;;18.47;;
1404;SDS011;697;51.114;6.542;2024-03-22T03:35:49;24.30;;;17.67;;
1404;SDS011;697;51.114;6.542;2024-03-22T03:38:15;23.20;;;16.90;;
1404;SDS011;697;51.114;6.542;2024-03-22T03:40:42;26.77;;;19.20;;
1404;SDS011;697;51.114;6.542;2024-03-22T03:43:07;23.27;;;17.07;;
1404;SDS011;697;51.114;6.542;2024-03-22T03:45:36;25.27;;;18.67;;
1404;SDS011;697;51.114;6.542;2024-03-22T03:48:02;28.10;;;19.10;;
1404;SDS011;697;51.114;6.542;2024-03-22T03:50:30;27.10;;;18.87;;
1404;SDS011;697;51.114;6.542;2024-03-22T03:52:56;25.10;;;18.50;;
1404;SDS011;697;51.114;6.542;2024-03-22T03:55:23;24.37;;;18.70;;
1404;SDS011;697;51.114;6.542;2024-03-22T03:57:49;24.60;;;19.30;;
1404;SDS011;697;51.114;6.542;2024-03-22T04:00:17;23.30;;;18.00;;
1404;SDS011;697;51.114;6.542;2024-03-22T04:02:43;22.47;;;16.57;;
1404;SDS011;697;51.114;6.542;2024-03-22T04:05:10;25.30;;;18.60;;
1404;SDS011;697;51.114;6.542;2024-03-22T04:07:37;30.03;;;20.67;;
1404;SDS011;697;51.114;6.542;2024-03-22T04:10:07;28.37;;;20.07;;
1404;SDS011;697;51.114;6.542;2024-03-22T04:12:34;27.43;;;20.77;;
1404;SDS011;697;51.114;6.542;2024-03-22T04:15:01;24.77;;;19.00;;
1404;SDS011;697;51.114;6.542;2024-03-22T04:17:27;24.87;;;19.20;;
1404;SDS011;697;51.114;6.542;2024-03-22T04:19:54;25.40;;;19.73;;
1404;SDS011;697;51.114;6.542;2024-03-22T04:22:19;29.07;;;19.60;;
1404;SDS011;697;51.114;6.542;2024-03-22T04:24:48;29.13;;;19.30;;
1404;SDS011;697;51.114;6.542;2024-03-22T04:27:13;25.17;;;19.13;;
1404;SDS011;697;51.114;6.542;2024-03-22T04:29:40;21.30;;;17.80;;
1404;SDS011;697;51.114;6.542;2024-03-22T04:32:06;22.03;;;17.93;;
1404;SDS011;697;51.114;6.542;2024-03-22T04:34:33;22.03;;;16.60;;
1404;SDS011;697;51.114;6.542;2024-03-22T04:36:59;26.10;;;19.90;;
1404;SDS011;697;51.114;6.542;2024-03-22T04:39:25;24.60;;;16.77;;
1404;SDS011;697;51.114;6.542;2024-03-22T04:41:54;21.50;;;17.20;;
1404;SDS011;697;51.114;6.542;2024-03-22T04:44:19;23.23;;;17.20;;
1404;SDS011;697;51.114;6.542;2024-03-22T04:46:46;24.70;;;18.37;;
1404;SDS011;697;51.114;6.542;2024-03-22T04:49:13;25.57;;;17.83;;
1404;SDS011;697;51.114;6.542;2024-03-22T04:51:40;22.27;;;17.27;;
1404;SDS011;697;51.114;6.542;2024-03-22T04:54:07;20.30;;;16.10;;
1404;SDS011;697;51.114;6.542;2024-03-22T04:56:32;19.00;;;16.43;;
1404;SDS011;697;51.114;6.542;2024-03-22T04:59:01;22.97;;;15.27;;
1404;SDS011;697;51.114;6.542;2024-03-22T05:01:28;20.80;;;15.80;;
1404;SDS011;697;51.114;6.542;2024-03-22T05:03:54;24.40;;;15.10;;
1404;SDS011;697;51.114;6.542;2024-03-22T05:06:20;22.30;;;16.27;;
1404;SDS011;697;51.114;6.542;2024-03-22T05:08:47;20.70;;;14.60;;
1404;SDS011;697;51.114;6.542;2024-03-22T05:11:13;21.23;;;16.13;;
1404;SDS011;697;51.114;6.542;2024-03-22T05:13:40;19.00;;;15.80;;
1404;SDS011;697;51.114;6.542;2024-03-22T05:16:07;20.30;;;15.40;;
1404;SDS011;697;51.114;6.542;2024-03-22T05:18:36;20.53;;;14.20;;
1404;SDS011;697;51.114;6.542;2024-03-22T05:21:02;16.53;;;14.00;;
1404;SDS011;697;51.114;6.542;2024-03-22T05:23:29;21.40;;;15.87;;
1404;SDS011;697;51.114;6.542;2024-03-22T05:25:55;22.23;;;14.30;;
1404;SDS011;697;51.114;6.542;2024-03-22T05:28:22;17.07;;;14.10;;
1404;SDS011;697;51.114;6.542;2024-03-22T05:30:47;22.37;;;14.80;;
1404;SDS011;697;51.114;6.542;2024-03-22T05:33:16;19.97;;;15.50;;
1404;SDS011;697;51.114;6.542;2024-03-22T05:35:41;20.67;;;15.50;;
1404;SDS011;697;51.114;6.542;2024-03-22T05:38:08;21.90;;;15.00;;
1404;SDS011;697;51.114;6.542;2024-03-22T05:40:35;19.60;;;16.00;;
1404;SDS011;697;51.114;6.542;2024-03-22T05:43:03;22.50;;;15.93;;
1404;SDS011;697;51.114;6.542;2024-03-22T05:45:29;20.07;;;15.70;;
1404;SDS011;697;51.114;6.542;2024-03-22T05:47:56;17.90;;;14.63;;
1404;SDS011;697;51.114;6.542;2024-03-22T05:50:23;21.73;;;16.60;;
1404;SDS011;697;51.114;6.542;2024-03-22T05:52:50;20.43;;;15.90;;
1404;SDS011;697;51.114;6.542;2024-03-22T05:55:16;21.23;;;14.67;;
1404;SDS011;697;51.114;6.542;2024-03-22T05:57:43;23.83;;;16.07;;
1404;SDS011;697;51.114;6.542;2024-03-22T06:00:09;20.83;;;16.43;;
1404;SDS011;697;51.114;6.542;2024-03-22T06:02:38;23.17;;;16.50;;
1404;SDS011;697;51.114;6.542;2024-03-22T06:05:04;21.37;;;16.40;;
1404;SDS011;697;51.114;6.542;2024-03-22T06:07:33;24.80;;;17.20;;
1404;SDS011;697;51.114;6.542;2024-03-22T06:10:06;20.47;;;16.80;;
1404;SDS011;697;51.114;6.542;2024-03-22T06:12:34;19.97;;;16.60;;
1404;SDS011;697;51.114;6.542;2024-03-22T06:15:01;25.00;;;17.93;;
1404;SDS011;697;51.114;6.542;2024-03-22T06:17:31;19.50;;;16.47;;
1404;SDS011;697;51.114;6.542;2024-03-22T06:19:57;23.70;;;18.00;;
1404;SDS011;697;51.114;6.542;2024-03-22T06:22:24;19.60;;;16.20;;
1404;SDS011;697;51.114;6.542;2024-03-22T06:24:52;25.17;;;17.60;;
1404;SDS011;697;51.114;6.542;2024-03-22T06:27:19;26.67;;;18.73;;
1404;SDS011;697;51.114;6.542;2024-03-22T06:29:44;23.90;;;17.60;;
1404;SDS011;697;51.114;6.542;2024-03-22T06:32:11;29.23;;;18.20;;
1404;SDS011;697;51.114;6.542;2024-03-22T06:34:37;20.37;;;17.23;;
1404;SDS011;697;51.114;6.542;2024-03-22T06:37:04;25.27;;;18.73;;
1404;SDS011;697;51.114;6.542;2024-03-22T06:39:31;29.60;;;18.93;;
1404;SDS011;697;51.114;6.542;2024-03-22T06:41:59;28.27;;;21.43;;
1404;SDS011;697;51.114;6.542;2024-03-22T06:44:25;27.80;;;21.13;;
1404;SDS011;697;51.114;6.542;2024-03-22T06:46:52;27.10;;;19.53;;
1404;SDS011;697;51.114;6.542;2024-03-22T06:49:18;28.17;;;20.97;;
1404;SDS011;697;51.114;6.542;2024-03-22T06:51:45;25.97;;;21.00;;
1404;SDS011;697;51.114;6.542;2024-03-22T06:54:11;23.07;;;20.17;;
1404;SDS011;697;51.114;6.542;2024-03-22T06:56:37;26.60;;;21.80;;
1404;SDS011;697;51.114;6.542;2024-03-22T06:59:05;30.27;;;21.87;;
1404;SDS011;697;51.114;6.542;2024-03-22T07:01:31;27.70;;;21.50;;
1404;SDS011;697;51.114;6.542;2024-03-22T07:03:57;30.60;;;23.40;;
1404;SDS011;697;51.114;6.542;2024-03-22T07:06:24;24.10;;;20.37;;
1404;SDS011;697;51.114;6.542;2024-03-22T07:08:50;30.30;;;23.20;;
1404;SDS011;697;51.114;6.542;2024-03-22T07:11:17;36.23;;;23.90;;
1404;SDS011;697;51.114;6.542;2024-03-22T07:13:42;32.27;;;21.57;;
1404;SDS011;697;51.114;6.542;2024-03-22T07:16:11;29.40;;;21.73;;
1404;SDS011;697;51.114;6.542;2024-03-22T07:18:36;29.10;;;23.53;;
1404;SDS011;697;51.114;6.542;2024-03-22T07:21:03;29.73;;;23.23;;
1404;SDS011;697;51.114;6.542;2024-03-22T07:23:30;25.67;;;22.83;;
1404;SDS011;697;51.114;6.542;2024-03-22T07:25:56;35.37;;;24.47;;
1404;SDS011;697;51.114;6.542;2024-03-22T07:28:23;29.80;;;23.93;;
1404;SDS011;697;51.114;6.542;2024-03-22T07:30:50;31.47;;;24.00;;
1404;SDS011;697;51.114;6.542;2024-03-22T07:33:17;32.60;;;23.07;;
1404;SDS011;697;51.114;6.542;2024-03-22T07:35:44;32.77;;;22.70;;
1404;SDS011;697;51.114;6.542;2024-03-22T07:38:09;32.97;;;23.60;;
1404;SDS011;697;51.114;6.542;2024-03-22T07:40:36;32.27;;;23.50;;
1404;SDS011;697;51.114;6.542;2024-03-22T07:43:02;33.20;;;23.83;;
1404;SDS011;697;51.114;6.542;2024-03-22T07:45:31;33.93;;;25.37;;
1404;SDS011;697;51.114;6.542;2024-03-22T07:47:57;37.83;;;23.70;;
1404;SDS011;697;51.114;6.542;2024-03-22T07:50:26;29.10;;;21.50;;
1404;SDS011;697;51.114;6.542;2024-03-22T07:52:52;32.97;;;23.80;;
1404;SDS011;697;51.114;6.542;2024-03-22T07:55:19;30.67;;;24.67;;
1404;SDS011;697;51.114;6.542;2024-03-22T07:57:45;31.27;;;23.00;;
1404;SDS011;697;51.114;6.542;2024-03-22T08:00:12;29.17;;;21.00;;
1404;SDS011;697;51.114;6.542;2024-03-22T08:02:38;26.97;;;21.97;;
1404;SDS011;697;51.114;6.542;2024-03-22T08:05:06;26.03;;;19.73;;
1404;SDS011;697;51.114;6.542;2024-03-22T08:07:33;29.23;;;19.73;;
1404;SDS011;697;51.114;6.542;2024-03-22T08:10:00;30.30;;;19.30;;
1404;SDS011;697;51.114;6.542;2024-03-22T08:12:27;32.30;;;20.83;;
1404;SDS011;697;51.114;6.542;2024-03-22T08:14:54;26.17;;;20.17;;
1404;SDS011;697;51.114;6.542;2024-03-22T08:17:20;26.30;;;19.63;;
1404;SDS011;697;51.114;6.542;2024-03-22T08:19:47;27.10;;;19.87;;
1404;SDS011;697;51.114;6.542;2024-03-22T08:22:13;28.50;;;19.20;;
1404;SDS011;697;51.114;6.542;2024-03-22T08:24:41;26.33;;;17.40;;
1404;SDS011;697;51.114;6.542;2024-03-22T08:27:07;22.83;;;16.70;;
1404;SDS011;697;51.114;6.542;2024-03-22T08:29:34;22.07;;;16.53;;
1404;SDS011;697;51.114;6.542;2024-03-22T08:32:00;22.43;;;17.67;;
1404;SDS011;697;51.114;6.542;2024-03-22T08:34:29;25.70;;;17.33;;
1404;SDS011;697;51.114;6.542;2024-03-22T08:36:55;27.73;;;17.33;;
1404;SDS011;697;51.114;6.542;2024-03-22T08:39:22;22.93;;;16.70;;
1404;SDS011;697;51.114;6.542;2024-03-22T08:41:50;19.13;;;16.40;;
1404;SDS011;697;51.114;6.542;2024-03-22T08:44:17;17.67;;;15.77;;
1404;SDS011;697;51.114;6.542;2024-03-22T08:46:43;20.67;;;15.80;;
1404;SDS011;697;51.114;6.542;2024-03-22T08:49:10;28.97;;;17.70;;
1404;SDS011;697;51.114;6.542;2024-03-22T08:51:37;17.27;;;15.33;;
1404;SDS011;697;51.114;6.542;2024-03-22T08:54:04;18.57;;;15.50;;
1404;SDS011;697;51.114;6.542;2024-03-22T08:56:30;18.53;;;15.40;;
1404;SDS011;697;51.114;6.542;2024-03-22T08:58:58;29.70;;;16.27;;
1404;SDS011;697;51.114;6.542;2024-03-22T09:01:24;23.67;;;15.77;;
1404;SDS011;697;51.114;6.542;2024-03-22T09:03:51;22.07;;;16.67;;
1404;SDS011;697;51.114;6.542;2024-03-22T09:06:18;21.23;;;16.20;;
1404;SDS011;697;51.114;6.542;2024-03-22T09:08:45;18.20;;;15.43;;
1404;SDS011;697;51.114;6.542;2024-03-22T09:11:11;20.53;;;16.67;;
1404;SDS011;697;51.114;6.542;2024-03-22T09:13:37;28.83;;;16.43;;
1404;SDS011;697;51.114;6.542;2024-03-22T09:16:05;22.33;;;15.73;;
1404;SDS011;697;51.114;6.542;2024-03-22T09:18:32;24.30;;;16.40;;
1404;SDS011;697;51.114;6.542;2024-03-22T09:20:58;18.33;;;15.40;;
1404;SDS011;697;51.114;6.542;2024-03-22T09:23:25;18.13;;;16.20;;
1404;SDS011;697;51.114;6.542;2024-03-22T09:25:51;21.13;;;16.03;;
1404;SDS011;697;51.114;6.542;2024-03-22T09:28:17;19.77;;;16.63;;
1404;SDS011;697;51.114;6.542;2024-03-22T09:30:43;17.10;;;15.07;;
1404;SDS011;697;51.114;6.542;2024-03-22T09:33:11;23.10;;;16.43;;
1404;SDS011;697;51.114;6.542;2024-03-22T09:35:39;18.60;;;15.87;;
1404;SDS011;697;51.114;6.542;2024-03-22T09:38:05;21.90;;;18.13;;
1404;SDS011;697;51.114;6.542;2024-03-22T09:40:31;19.33;;;16.30;;
1404;SDS011;697;51.114;6.542;2024-03-22T09:43:00;18.77;;;16.23;;
1404;SDS011;697;51.114;6.542;2024-03-22T09:45:28;19.87;;;15.90;;
1404;SDS011;697;51.114;6.542;2024-03-22T09:47:56;21.93;;;17.07;;
1404;SDS011;697;51.114;6.542;2024-03-22T09:50:24;23.03;;;17.73;;
1404;SDS011;697;51.114;6.542;2024-03-22T09:52:51;22.07;;;16.03;;
1404;SDS011;697;51.114;6.542;2024-03-22T09:55:18;20.07;;;17.23;;
1404;SDS011;697;51.114;6.542;2024-03-22T09:57:48;21.30;;;16.17;;
1404;SDS011;697;51.114;6.542;2024-03-22T10:00:16;25.10;;;18.00;;
1404;SDS011;697;51.114;6.542;2024-03-22T10:02:45;20.50;;;15.97;;
1404;SDS011;697;51.114;6.542;2024-03-22T10:05:12;18.67;;;15.77;;
1404;SDS011;697;51.114;6.542;2024-03-22T10:07:40;21.47;;;16.10;;
1404;SDS011;697;51.114;6.542;2024-03-22T10:10:06;22.50;;;17.20;;
1404;SDS011;697;51.114;6.542;2024-03-22T10:12:33;22.67;;;16.77;;
1404;SDS011;697;51.114;6.542;2024-03-22T10:14:59;24.20;;;17.27;;
1404;SDS011;697;51.114;6.542;2024-03-22T10:17:26;19.67;;;17.53;;
1404;SDS011;697;51.114;6.542;2024-03-22T10:19:53;22.00;;;17.43;;
1404;SDS011;697;51.114;6.542;2024-03-22T10:22:20;24.80;;;16.30;;
1404;SDS011;697;51.114;6.542;2024-03-22T10:24:47;20.30;;;17.53;;
1404;SDS011;697;51.114;6.542;2024-03-22T10:27:15;24.13;;;18.87;;
1404;SDS011;697;51.114;6.542;2024-03-22T10:29:40;24.40;;;17.73;;
1404;SDS011;697;51.114;6.542;2024-03-22T10:32:08;24.77;;;18.60;;
1404;SDS011;697;51.114;6.542;2024-03-22T10:34:35;19.50;;;16.83;;
1404;SDS011;697;51.114;6.542;2024-03-22T10:37:02;19.20;;;17.07;;
1404;SDS011;697;51.114;6.542;2024-03-22T10:39:29;23.10;;;17.27;;
1404;SDS011;697;51.114;6.542;2024-03-22T10:41:58;22.37;;;15.93;;
1404;SDS011;697;51.114;6.542;2024-03-22T10:44:24;20.37;;;17.50;;
1404;SDS011;697;51.114;6.542;2024-03-22T10:46:51;22.43;;;16.40;;
1404;SDS011;697;51.114;6.542;2024-03-22T10:49:21;18.77;;;15.80;;
1404;SDS011;697;51.114;6.542;2024-03-22T10:51:48;19.93;;;15.77;;
1404;SDS011;697;51.114;6.542;2024-03-22T10:54:18;22.20;;;16.00;;
1404;SDS011;697;51.114;6.542;2024-03-22T10:56:47;17.67;;;15.10;;
1404;SDS011;697;51.114;6.542;2024-03-22T10:59:15;18.87;;;14.70;;
1404;SDS011;697;51.114;6.542;2024-03-22T11:01:46;17.30;;;14.17;;
1404;SDS011;697;51.114;6.542;2024-03-22T11:04:12;21.00;;;16.17;;
1404;SDS011;697;51.114;6.542;2024-03-22T11:06:39;19.20;;;15.77;;
1404;SDS011;697;51.114;6.542;2024-03-22T11:09:05;19.87;;;14.50;;
1404;SDS011;697;51.114;6.542;2024-03-22T11:11:34;18.03;;;15.60;;
1404;SDS011;697;51.114;6.542;2024-03-22T11:14:02;18.10;;;14.57;;
1404;SDS011;697;51.114;6.542;2024-03-22T11:16:31;18.60;;;15.77;;
1404;SDS011;697;51.114;6.542;2024-03-22T11:18:56;21.07;;;15.03;;
1404;SDS011;697;51.114;6.542;2024-03-22T11:21:23;19.90;;;16.23;;
1404;SDS011;697;51.114;6.542;2024-03-22T11:23:49;19.20;;;16.60;;
1404;SDS011;697;51.114;6.542;2024-03-22T11:26:16;18.13;;;16.10;;
1404;SDS011;697;51.114;6.542;2024-03-22T11:28:42;18.37;;;14.60;;
1404;SDS011;697;51.114;6.542;2024-03-22T11:31:09;19.63;;;14.53;;
1404;SDS011;697;51.114;6.542;2024-03-22T11:33:36;18.77;;;15.37;;
1404;SDS011;697;51.114;6.542;2024-03-22T11:36:03;18.30;;;14.80;;
1404;SDS011;697;51.114;6.542;2024-03-22T11:38:30;16.70;;;13.93;;
1404;SDS011;697;51.114;6.542;2024-03-22T11:40:57;16.63;;;14.73;;
1404;SDS011;697;51.114;6.542;2024-03-22T11:43:25;18.63;;;14.67;;
1404;SDS011;697;51.114;6.542;2024-03-22T11:45:53;18.20;;;15.70;;
1404;SDS011;697;51.114;6.542;2024-03-22T11:48:19;17.03;;;15.20;;
1404;SDS011;697;51.114;6.542;2024-03-22T11:50:48;17.90;;;14.80;;
1404;SDS011;697;51.114;6.542;2024-03-22T11:53:15;16.20;;;13.43;;
1404;SDS011;697;51.114;6.542;2024-03-22T11:55:42;19.43;;;14.30;;
1404;SDS011;697;51.114;6.542;2024-03-22T11:58:08;16.40;;;14.00;;
1404;SDS011;697;51.114;6.542;2024-03-22T12:00:36;16.40;;;13.87;;
1404;SDS011;697;51.114;6.542;2024-03-22T12:03:03;15.97;;;12.80;;
1404;SDS011;697;51.114;6.542;2024-03-22T12:05:31;19.07;;;13.17;;
1404;SDS011;697;51.114;6.542;2024-03-22T12:07:59;17.33;;;14.70;;
1404;SDS011;697;51.114;6.542;2024-03-22T12:10:25;16.03;;;14.30;;
1404;SDS011;697;51.114;6.542;2024-03-22T12:12:51;15.63;;;13.83;;
1404;SDS011;697;51.114;6.542;2024-03-22T12:15:19;14.40;;;13.00;;
1404;SDS011;697;51.114;6.542;2024-03-22T12:17:44;15.47;;;13.77;;
1404;SDS011;697;51.114;6.542;2024-03-22T12:20:11;19.67;;;15.40;;
1404;SDS011;697;51.114;6.542;2024-03-22T12:22:39;17.47;;;14.37;;
1404;SDS011;697;51.114;6.542;2024-03-22T12:25:08;17.80;;;14.70;;
1404;SDS011;697;51.114;6.542;2024-03-22T12:27:35;18.90;;;14.20;;
1404;SDS011;697;51.114;6.542;2024-03-22T12:30:02;19.50;;;15.10;;
1404;SDS011;697;51.114;6.542;2024-03-22T12:32:28;16.30;;;14.60;;
1404;SDS011;697;51.114;6.542;2024-03-22T12:34:54;17.50;;;14.77;;
1404;SDS011;697;51.114;6.542;2024-03-22T12:37:20;18.77;;;15.83;;
1404;SDS011;697;51.114;6.542;2024-03-22T12:39:47;18.27;;;15.70;;
1404;SDS011;697;51.114;6.542;2024-03-22T12:42:15;20.70;;;15.07;;
1404;SDS011;697;51.114;6.542;2024-03-22T12:44:42;19.57;;;16.23;;
1404;SDS011;697;51.114;6.542;2024-03-22T12:47:08;15.30;;;13.67;;
1404;SDS011;697;51.114;6.542;2024-03-22T12:49:34;18.53;;;14.90;;
1404;SDS011;697;51.114;6.542;2024-03-22T12:52:00;16.30;;;13.57;;
1404;SDS011;697;51.114;6.542;2024-03-22T12:54:27;16.97;;;13.93;;
1404;SDS011;697;51.114;6.542;2024-03-22T12:56:54;19.20;;;15.00;;
1404;SDS011;697;51.114;6.542;2024-03-22T12:59:22;16.37;;;14.10;;
1404;SDS011;697;51.114;6.542;2024-03-22T13:01:48;17.83;;;15.00;;
1404;SDS011;697;51.114;6.542;2024-03-22T13:04:15;16.57;;;15.00;;
1404;SDS011;697;51.114;6.542;2024-03-22T13:06:43;16.57;;;13.13;;
1404;SDS011;697;51.114;6.542;2024-03-22T13:09:10;13.67;;;10.83;;
1404;SDS011;697;51.114;6.542;2024-03-22T13:11:37;15.17;;;11.67;;
1404;SDS011;697;51.114;6.542;2024-03-22T13:14:06;13.90;;;12.50;;
1404;SDS011;697;51.114;6.542;2024-03-22T13:16:33;12.90;;;10.80;;
1404;SDS011;697;51.114;6.542;2024-03-22T13:19:00;11.87;;;10.63;;
1404;SDS011;697;51.114;6.542;2024-03-22T13:21:26;13.53;;;10.20;;
1404;SDS011;697;51.114;6.542;2024-03-22T13:23:53;13.70;;;10.20;;
1404;SDS011;697;51.114;6.542;2024-03-22T13:26:19;13.40;;;10.00;;
1404;SDS011;697;51.114;6.542;2024-03-22T13:28:45;12.90;;;9.70;;
1404;SDS011;697;51.114;6.542;2024-03-22T13:31:11;14.53;;;10.90;;
1404;SDS011;697;51.114;6.542;2024-03-22T13:33:39;12.50;;;10.87;;
1404;SDS011;697;51.114;6.542;2024-03-22T13:36:05;16.67;;;10.97;;
1404;SDS011;697;51.114;6.542;2024-03-22T13:38:32;13.70;;;11.70;;
1404;SDS011;697;51.114;6.542;2024-03-22T13:40:58;15.87;;;12.80;;
1404;SDS011;697;51.114;6.542;2024-03-22T13:43:25;12.60;;;10.97;;
1404;SDS011;697;51.114;6.542;2024-03-22T13:45:52;14.27;;;11.90;;
1404;SDS011;697;51.114;6.542;2024-03-22T13:48:20;16.07;;;12.73;;
1404;SDS011;697;51.114;6.542;2024-03-22T13:50:50;16.20;;;12.47;;
1404;SDS011;697;51.114;6.542;2024-03-22T13:53:17;15.20;;;13.23;;
1404;SDS011;697;51.114;6.542;2024-03-22T13:55:44;17.57;;;13.43;;
1404;SDS011;697;51.114;6.542;2024-03-22T13:58:11;15.10;;;12.13;;
1404;SDS011;697;51.114;6.542;2024-03-22T14:00:37;14.80;;;12.77;;
1404;SDS011;697;51.114;6.542;2024-03-22T14:03:05;15.93;;;12.57;;
1404;SDS011;697;51.114;6.542;2024-03-22T14:05:31;16.40;;;12.50;;
1404;SDS011;697;51.114;6.542;2024-03-22T14:07:59;19.60;;;13.03;;
1404;SDS011;697;51.114;6.542;2024-03-22T14:10:25;14.73;;;12.13;;
1404;SDS011;697;51.114;6.542;2024-03-22T14:12:54;15.93;;;13.23;;
1404;SDS011;697;51.114;6.542;2024-03-22T14:15:20;14.53;;;12.60;;
1404;SDS011;697;51.114;6.542;2024-03-22T14:17:49;13.93;;;11.60;;
1404;SDS011;697;51.114;6.542;2024-03-22T14:20:15;17.63;;;11.80;;
1404;SDS011;697;51.114;6.542;2024-03-22T14:22:42;14.23;;;12.73;;
1404;SDS011;697;51.114;6.542;2024-03-22T14:25:09;20.10;;;14.37;;
1404;SDS011;697;51.114;6.542;2024-03-22T14:27:36;17.60;;;13.63;;
1404;SDS011;697;51.114;6.542;2024-03-22T14:30:04;15.97;;;12.73;;
1404;SDS011;697;51.114;6.542;2024-03-22T14:32:33;17.83;;;12.57;;
1404;SDS011;697;51.114;6.542;2024-03-22T14:34:59;16.33;;;12.90;;
1404;SDS011;697;51.114;6.542;2024-03-22T14:37:26;18.50;;;13.23;;
1404;SDS011;697;51.114;6.542;2024-03-22T14:39:52;14.90;;;13.30;;
1404;SDS011;697;51.114;6.542;2024-03-22T14:42:20;16.30;;;13.53;;
1404;SDS011;697;51.114;6.542;2024-03-22T14:44:46;18.20;;;14.03;;
1404;SDS011;697;51.114;6.542;2024-03-22T14:47:13;14.90;;;13.40;;
1404;SDS011;697;51.114;6.542;2024-03-22T14:49:39;16.07;;;13.90;;
1404;SDS011;697;51.114;6.542;2024-03-22T14:52:06;14.80;;;13.10;;
1404;SDS011;697;51.114;6.542;2024-03-22T14:54:32;16.37;;;12.83;;
1404;SDS011;697;51.114;6.542;2024-03-22T14:56:59;15.90;;;12.77;;